Time;durP1;ratioP1;P1;durP2;ratioP2;P2;SDS_P1;SDS_P2;PMS_P1;PMS_P2;Temp;Humidity;BMP_temperature;BMP_pressure;BME280_temperature;BME280_humidity;BME280_pressure;Samples;Min_cycle;Max_cycle;Signal;HPM_P1;HPM_P2
2022/04/20 00:01:18;;;;;;;;;7.00;2.00;;;;;22.57;64.10;100930.25;5093839;27;45577;-64
2022/04/20 00:03:43;;;;;;;;;4.00;3.00;;;;;22.58;63.81;100928.44;5076908;27;45219;-64
2022/04/20 00:06:09;;;;;;;;;4.00;3.00;;;;;22.58;63.87;100925.75;5085589;27;56200;-64
2022/04/20 00:08:34;;;;;;;;;4.00;3.00;;;;;22.58;64.05;100929.31;5094569;27;54201;-66
2022/04/20 00:11:00;;;;;;;;;5.00;4.00;;;;;22.57;64.25;100921.31;5086035;27;45850;-64
2022/04/20 00:13:26;;;;;;;;;3.00;3.00;;;;;22.58;64.01;100925.75;5087292;27;45403;-63
2022/04/20 00:15:51;;;;;;;;;3.33;3.33;;;;;22.58;64.23;100925.75;5088447;27;53652;-67
2022/04/20 00:18:17;;;;;;;;;4.00;3.00;;;;;22.57;64.15;100918.63;5077144;27;45345;-66
2022/04/20 00:20:42;;;;;;;;;5.00;3.00;;;;;22.57;63.99;100927.56;5076505;28;46463;-64
2022/04/20 00:23:08;;;;;;;;;4.00;4.00;;;;;22.56;64.08;100925.81;5081459;27;45630;-64
2022/04/20 00:25:33;;;;;;;;;3.00;3.00;;;;;22.56;64.30;100928.50;5095549;27;45508;-64
2022/04/20 00:27:58;;;;;;;;;3.67;2.33;;;;;22.56;64.01;100928.50;5097056;27;46168;-64
2022/04/20 00:30:24;;;;;;;;;3.00;3.00;;;;;22.54;64.08;100918.75;5096996;27;52058;-66
2022/04/20 00:32:49;;;;;;;;;4.00;3.00;;;;;22.54;64.04;100924.13;5097180;27;45319;-65
2022/04/20 00:35:14;;;;;;;;;3.00;3.00;;;;;22.54;64.48;100924.13;5095817;27;57350;-66
2022/04/20 00:37:41;;;;;;;;;3.00;3.00;;;;;22.54;63.89;100916.94;5080883;27;45352;-68
2022/04/20 00:40:07;;;;;;;;;3.00;3.00;;;;;22.53;64.46;100919.66;5076434;27;45682;-64
2022/04/20 00:42:33;;;;;;;;;3.67;2.67;;;;;22.51;64.13;100911.66;5076763;27;45250;-64
2022/04/20 00:44:58;;;;;;;;;4.33;3.00;;;;;22.51;63.91;100919.72;5076762;28;45286;-64
2022/04/20 00:47:25;;;;;;;;;6.00;3.00;;;;;22.51;64.15;100922.41;5077004;27;45416;-66
2022/04/20 00:49:51;;;;;;;;;3.33;3.33;;;;;22.50;64.04;100915.28;5079225;27;46599;-65
2022/04/20 00:52:16;;;;;;;;;3.33;3.33;;;;;22.49;64.32;100916.22;5095486;27;56380;-65
2022/04/20 00:54:41;;;;;;;;;5.00;3.00;;;;;22.48;64.75;100909.97;5095496;27;45348;-64
2022/04/20 00:57:07;;;;;;;;;3.00;3.00;;;;;22.48;64.75;100912.66;5084254;27;51838;-66
2022/04/20 00:59:35;;;;;;;;;3.00;3.00;;;;;22.45;64.59;100907.38;5077262;27;46585;-64
2022/04/20 01:02:01;;;;;;;;;4.00;4.00;;;;;22.46;64.34;100906.44;5075156;28;45478;-65
2022/04/20 01:04:35;;;;;;;;;3.33;3.33;;;;;22.46;64.79;100900.19;5076429;27;45515;-64
2022/04/20 01:07:10;;;;;;;;;7.00;3.00;;;;;22.46;64.64;100897.50;5092830;27;47181;-67
2022/04/20 01:09:36;;;;;;;;;6.67;4.00;;;;;22.45;64.56;100902.00;5092837;27;46495;-65
2022/04/20 01:12:02;;;;;;;;;3.00;3.00;;;;;22.43;64.84;100895.81;5086175;27;61267;-64
2022/04/20 01:14:27;;;;;;;;;4.00;4.00;;;;;22.43;64.50;100901.19;5100298;27;45397;-64
2022/04/20 01:16:52;;;;;;;;;5.33;3.67;;;;;22.43;64.98;100900.31;5100122;27;45410;-64
2022/04/20 01:19:19;;;;;;;;;4.67;4.67;;;;;22.43;64.49;100897.63;5099758;27;46602;-65
2022/04/20 01:21:44;;;;;;;;;4.00;4.00;;;;;22.43;64.73;100897.63;5099872;27;45578;-64
2022/04/20 01:24:11;;;;;;;;;4.33;4.33;;;;;22.42;64.95;100890.47;5099944;27;45316;-64
2022/04/20 01:26:39;;;;;;;;;3.00;3.00;;;;;22.41;64.80;100891.41;5090020;27;45686;-63
2022/04/20 01:29:05;;;;;;;;;5.00;3.00;;;;;22.40;64.75;100892.34;5079599;27;47446;-64
2022/04/20 01:31:30;;;;;;;;;4.00;4.00;;;;;22.40;65.13;100895.03;5078966;27;63393;-65
2022/04/20 01:33:56;;;;;;;;;5.00;3.00;;;;;22.40;65.15;100889.66;5079731;27;45373;-65
2022/04/20 01:36:21;;;;;;;;;4.33;4.33;;;;;22.40;65.01;100900.41;5089839;27;60327;-64
2022/04/20 01:38:46;;;;;;;;;6.67;5.00;;;;;22.39;65.10;100894.16;5099165;27;45786;-64
2022/04/20 01:41:12;;;;;;;;;3.00;3.00;;;;;22.38;65.43;100895.09;5100083;27;45291;-64
2022/04/20 01:43:37;;;;;;;;;4.00;3.00;;;;;22.38;65.27;100903.16;5099836;27;45806;-65
2022/04/20 01:46:03;;;;;;;;;6.00;5.00;;;;;22.37;65.46;100890.66;5099607;27;51992;-64
2022/04/20 01:48:28;;;;;;;;;4.00;4.00;;;;;22.38;65.36;100891.53;5099737;27;46508;-64
2022/04/20 01:53:37;;;;;;;;;4.67;4.67;;;;;22.36;65.08;100896.06;5098393;27;45446;-64
2022/04/20 01:56:06;;;;;;;;;6.00;3.67;;;;;22.36;65.51;100890.69;5094207;27;55934;-64
2022/04/20 01:58:33;;;;;;;;;5.00;3.00;;;;;22.35;65.16;100897.88;5092183;27;46831;-67
2022/04/20 02:00:58;;;;;;;;;4.33;4.33;;;;;22.34;65.69;100890.75;5099648;27;45840;-64
2022/04/20 02:03:24;;;;;;;;;4.00;4.00;;;;;22.33;65.39;100894.38;5094168;27;52037;-64
2022/04/20 02:05:49;;;;;;;;;6.00;5.67;;;;;22.34;65.28;100889.88;5078950;27;45279;-65
2022/04/20 02:08:17;;;;;;;;;5.00;4.00;;;;;22.34;65.28;100896.13;5078220;27;65816;-64
2022/04/20 02:10:42;;;;;;;;;6.33;4.67;;;;;22.34;65.30;100887.19;5098846;27;45369;-66
2022/04/20 02:13:08;;;;;;;;;3.33;3.33;;;;;22.34;65.86;100895.25;5093050;27;45198;-63
2022/04/20 02:15:33;;;;;;;;;4.00;4.00;;;;;22.34;65.59;100889.88;5099203;27;45340;-64
2022/04/20 02:17:59;;;;;;;;;4.33;4.33;;;;;22.33;65.89;100883.63;5098412;27;53810;-64
2022/04/20 02:20:25;;;;;;;;;5.33;4.00;;;;;22.34;65.61;100876.44;5099307;27;45401;-65
2022/04/20 02:22:50;;;;;;;;;6.00;6.00;;;;;22.34;65.72;100866.53;5091947;27;45454;-65
2022/04/20 02:25:16;;;;;;;;;6.00;6.00;;;;;22.33;65.95;100867.47;5078837;27;45531;-67
2022/04/20 02:27:41;;;;;;;;;6.00;6.00;;;;;22.34;65.74;100865.66;5084744;27;46740;-64
2022/04/20 02:30:07;;;;;;;;;5.33;5.33;;;;;22.34;65.61;100862.97;5098303;27;45469;-64
2022/04/20 02:32:32;;;;;;;;;6.00;5.00;;;;;22.33;65.82;100859.41;5099112;27;45333;-65
2022/04/20 02:34:58;;;;;;;;;4.00;4.00;;;;;22.35;65.80;100865.59;5084652;27;54834;-65
2022/04/20 02:37:23;;;;;;;;;6.00;4.33;;;;;22.35;65.53;100854.84;5090807;27;46406;-64
2022/04/20 02:39:49;;;;;;;;;6.00;4.33;;;;;22.34;65.90;100852.22;5098386;27;58960;-64
2022/04/20 02:42:15;;;;;;;;;5.67;5.67;;;;;22.34;65.76;100850.41;5099165;27;45189;-66
2022/04/20 02:44:40;;;;;;;;;6.33;6.33;;;;;22.33;65.66;100854.03;5097396;27;51143;-65
2022/04/20 02:47:07;;;;;;;;;8.00;6.33;;;;;22.33;65.61;100845.09;5098280;27;52282;-64
2022/04/20 02:49:32;;;;;;;;;5.33;5.33;;;;;22.34;65.43;100850.41;5099048;27;45381;-67
2022/04/20 02:51:57;;;;;;;;;9.33;8.00;;;;;22.33;66.11;100843.28;5093774;27;45553;-64
2022/04/20 02:54:23;;;;;;;;;6.00;6.00;;;;;22.33;65.81;100840.59;5088609;27;50469;-65
2022/04/20 02:56:48;;;;;;;;;6.00;5.00;;;;;22.33;65.83;100837.91;5081089;27;46382;-65
2022/04/20 02:59:14;;;;;;;;;5.33;5.33;;;;;22.34;65.59;100841.47;5084418;27;58902;-64
2022/04/20 03:01:39;;;;;;;;;6.67;6.33;;;;;22.33;65.88;100839.72;5098336;27;45433;-66
2022/04/20 03:04:05;;;;;;;;;8.33;6.00;;;;;22.32;65.88;100833.44;5096371;27;45471;-64
2022/04/20 03:06:31;;;;;;;;;10.00;6.00;;;;;22.33;65.84;100828.94;5093284;27;46420;-64
2022/04/20 03:08:56;;;;;;;;;6.33;5.00;;;;;22.32;65.59;100838.84;5082846;27;45390;-67
2022/04/20 03:11:22;;;;;;;;;6.00;6.00;;;;;22.32;65.92;100833.44;5093626;27;55191;-65
2022/04/20 03:13:47;;;;;;;;;6.33;6.33;;;;;22.31;65.77;100820.91;5078203;27;45533;-64
2022/04/20 03:16:16;;;;;;;;;7.67;6.00;;;;;22.31;66.29;100820.91;5088644;27;60331;-65
2022/04/20 03:18:41;;;;;;;;;6.00;6.00;;;;;22.31;65.86;100822.72;5098338;27;45400;-64
2022/04/20 03:21:07;;;;;;;;;5.33;5.33;;;;;22.30;66.07;100827.22;5092794;27;45395;-66
2022/04/20 03:23:32;;;;;;;;;7.00;6.33;;;;;22.31;66.03;100836.19;5077815;27;45201;-66
2022/04/20 03:25:58;;;;;;;;;6.00;6.00;;;;;22.30;66.34;100832.63;5077851;27;46441;-64
2022/04/20 03:28:23;;;;;;;;;7.33;7.33;;;;;22.29;66.13;100830.88;5086784;27;45329;-63
2022/04/20 03:30:49;;;;;;;;;5.00;5.00;;;;;22.30;66.45;100837.13;5098110;27;45508;-66
2022/04/20 03:33:15;;;;;;;;;6.33;5.00;;;;;22.28;66.17;100837.19;5095482;27;45383;-63
2022/04/20 03:35:40;;;;;;;;;9.00;8.00;;;;;22.27;65.96;100845.31;5096522;27;46143;-63
2022/04/20 03:38:07;;;;;;;;;5.67;5.67;;;;;22.27;66.25;100840.81;5096945;27;45492;-64
2022/04/20 03:40:32;;;;;;;;;8.00;6.00;;;;;22.27;66.18;100846.19;5095849;27;46753;-63
2022/04/20 03:42:57;;;;;;;;;6.33;6.33;;;;;22.26;65.91;100847.09;5098213;27;45440;-63
2022/04/20 03:45:23;;;;;;;;;7.00;6.00;;;;;22.26;66.33;100851.59;5097633;27;46099;-66
2022/04/20 03:47:48;;;;;;;;;6.67;6.67;;;;;22.25;66.36;100849.84;5097996;27;45338;-66
2022/04/20 03:50:14;;;;;;;;;5.33;5.33;;;;;22.24;65.96;100843.59;5085957;27;54494;-66
2022/04/20 03:52:40;;;;;;;;;8.00;7.00;;;;;22.24;66.11;100865.13;5096855;27;45382;-64
2022/04/20 03:55:06;;;;;;;;;8.00;7.00;;;;;22.21;66.74;100855.38;5093146;27;61317;-64
2022/04/20 03:57:31;;;;;;;;;8.00;7.00;;;;;22.22;66.40;100859.81;5077507;27;45219;-64
2022/04/20 03:59:56;;;;;;;;;6.67;6.67;;;;;22.22;66.44;100864.31;5077899;27;50670;-62
2022/04/20 04:02:22;;;;;;;;;6.00;5.00;;;;;22.21;66.72;100859.84;5093493;27;51290;-64
2022/04/20 04:04:47;;;;;;;;;7.00;6.00;;;;;22.21;66.72;100854.47;5079371;27;53938;-64
2022/04/20 04:07:13;;;;;;;;;7.00;6.00;;;;;22.20;66.68;100856.28;5084847;27;45449;-66
2022/04/20 04:09:38;;;;;;;;;9.00;8.00;;;;;22.19;66.46;100857.22;5093413;27;45318;-64
2022/04/20 04:12:07;;;;;;;;;7.67;6.67;;;;;22.19;66.30;100848.28;5077382;27;45336;-64
2022/04/20 04:14:37;;;;;;;;;7.00;7.00;;;;;22.18;66.89;100838.47;5075505;28;46440;-66
2022/04/20 04:17:03;;;;;;;;;8.00;5.33;;;;;22.17;66.95;100834.91;5087941;27;45405;-65
2022/04/20 04:19:29;;;;;;;;;8.67;7.33;;;;;22.17;66.58;100837.59;5094546;27;45145;-64
2022/04/20 04:21:56;;;;;;;;;8.33;8.33;;;;;22.17;66.69;100845.66;5078191;27;45468;-66
2022/04/20 04:24:37;;;;;;;;;9.33;9.00;;;;;22.16;66.90;100838.53;5093942;27;45452;-65
2022/04/20 04:27:07;;;;;;;;;7.00;7.00;;;;;22.16;66.88;100848.41;5090765;27;45337;-64
2022/04/20 04:29:33;;;;;;;;;5.67;5.67;;;;;22.16;66.41;100851.09;5077233;27;45468;-66
2022/04/20 04:31:59;;;;;;;;;7.67;7.67;;;;;22.15;66.63;100857.38;5081298;27;45304;-64
2022/04/20 04:34:24;;;;;;;;;7.00;7.00;;;;;22.14;66.92;100855.63;5080694;27;46559;-66
2022/04/20 04:36:54;;;;;;;;;11.33;9.00;;;;;22.13;67.05;100849.38;5077086;27;45616;-64
2022/04/20 04:39:21;;;;;;;;;7.33;6.67;;;;;22.13;66.49;100854.75;5076844;27;45169;-64
2022/04/20 04:41:47;;;;;;;;;6.67;6.67;;;;;22.13;66.73;100860.13;5088219;27;45564;-64
2022/04/20 04:44:13;;;;;;;;;10.00;9.00;;;;;22.11;66.83;100856.63;5095593;27;46717;-67
2022/04/20 04:49:22;;;;;;;;;10.67;8.33;;;;;22.10;66.77;100865.63;5081159;27;45428;-66
2022/04/20 04:51:47;;;;;;;;;8.33;8.33;;;;;22.10;66.99;100872.78;5097505;27;45320;-65
2022/04/20 04:54:13;;;;;;;;;10.00;10.00;;;;;22.10;66.98;100875.47;5100701;27;46646;-63
2022/04/20 04:56:38;;;;;;;;;13.33;11.00;;;;;22.09;66.70;100874.59;5098294;27;60730;-64
2022/04/20 04:59:03;;;;;;;;;10.67;10.67;;;;;22.09;67.28;100871.91;5090908;27;55164;-64
2022/04/20 05:01:29;;;;;;;;;11.00;8.00;;;;;22.10;66.83;100868.31;5089168;27;45645;-64
2022/04/20 05:03:54;;;;;;;;;9.33;9.33;;;;;22.08;67.10;100867.47;5315104;22;61070;-66
2022/04/20 05:06:19;;;;;;;;;10.67;10.00;;;;;22.07;67.00;100860.34;5074621;28;45419;-63
2022/04/20 05:08:45;;;;;;;;;8.33;8.33;;;;;22.07;66.84;100867.53;5068674;28;58083;-63
2022/04/20 05:11:10;;;;;;;;;8.00;8.00;;;;;22.08;67.01;100869.28;5078684;28;58492;-64
2022/04/20 05:13:36;;;;;;;;;10.67;9.67;;;;;22.07;66.95;100872.91;5077708;28;63448;-65
2022/04/20 05:16:01;;;;;;;;;15.00;11.67;;;;;22.08;66.71;100871.97;5078991;28;55700;-64
2022/04/20 05:18:26;;;;;;;;;12.67;10.00;;;;;22.07;67.00;100864.84;5079045;28;60400;-63
2022/04/20 05:20:51;;;;;;;;;14.33;12.67;;;;;22.07;67.06;100875.59;5068024;28;45437;-63
2022/04/20 05:23:17;;;;;;;;;15.67;11.33;;;;;22.08;66.72;100871.97;5078752;28;67574;-63
2022/04/20 05:25:42;;;;;;;;;13.33;10.67;;;;;22.07;66.40;100867.53;5078467;28;53643;-64
2022/04/20 05:28:07;;;;;;;;;14.33;13.33;;;;;22.07;66.72;100870.22;5077627;28;45359;-67
2022/04/20 05:30:33;;;;;;;;;10.00;10.00;;;;;22.07;66.60;100878.28;5075040;28;49068;-64
2022/04/20 05:32:58;;;;;;;;;10.33;10.33;;;;;22.08;66.53;100871.97;5071357;28;46207;-63
2022/04/20 05:35:24;;;;;;;;;9.33;9.00;;;;;22.06;66.35;100869.34;5069853;28;60593;-64
2022/04/20 05:43:17;;;;;;;;;11.33;10.33;;;;;22.08;66.71;100885.41;5069340;28;45592;-64
2022/04/20 05:45:43;;;;;;;;;15.00;13.00;;;;;22.07;67.48;100889.03;5065686;28;58120;-64
2022/04/20 05:48:08;;;;;;;;;17.00;16.00;;;;;22.06;67.16;100880.09;5076798;28;45503;-66
2022/04/20 05:50:34;;;;;;;;;15.00;12.00;;;;;22.06;67.41;100881.91;5072159;28;45786;-64
2022/04/20 05:53:00;;;;;;;;;11.33;10.67;;;;;22.06;67.53;100880.09;5073126;28;64671;-64
2022/04/20 05:55:25;;;;;;;;;10.67;10.00;;;;;22.08;67.72;100882.72;5070500;28;45497;-67
2022/04/20 05:57:50;;;;;;;;;14.33;11.33;;;;;22.08;67.50;100874.66;5074496;28;45516;-65
2022/04/20 06:00:16;;;;;;;;;14.00;11.33;;;;;22.08;67.59;100875.53;5076732;28;45357;-64
2022/04/20 06:02:42;;;;;;;;;12.33;11.00;;;;;22.08;67.24;100870.16;5074368;28;47331;-64
2022/04/20 06:05:08;;;;;;;;;16.00;13.67;;;;;22.07;67.43;100871.09;5078797;27;45493;-66
2022/04/20 06:08:29;;;;;;;;;5.33;2.67;;;;;22.09;66.97;100871.03;5077703;28;45285;-64
2022/04/20 06:10:55;;;;;;;;;12.33;12.33;;;;;22.07;67.31;100863.03;5069363;28;45553;-65
2022/04/20 06:13:21;;;;;;;;;10.33;10.33;;;;;22.08;67.21;100866.59;5070350;28;46712;-65
2022/04/20 06:15:46;;;;;;;;;13.67;12.67;;;;;22.07;66.99;100863.03;5075229;28;45657;-65
2022/04/20 06:18:12;;;;;;;;;11.00;11.00;;;;;22.06;66.80;100853.22;5077166;28;45429;-64
2022/04/20 06:20:37;;;;;;;;;16.67;11.00;;;;;22.07;67.39;100862.16;5076605;28;50931;-65
2022/04/20 06:23:03;;;;;;;;;12.33;11.33;;;;;22.07;67.24;100864.84;5075344;28;47725;-64
2022/04/20 06:25:28;;;;;;;;;13.33;11.00;;;;;22.07;67.42;100865.72;5071721;28;52666;-67
2022/04/20 06:27:53;;;;;;;;;10.00;10.00;;;;;22.07;67.06;100875.59;5071457;27;46121;-66
2022/04/20 06:30:19;;;;;;;;;9.33;8.00;;;;;22.06;67.31;100879.22;5074082;27;53147;-67
2022/04/20 06:32:44;;;;;;;;;14.33;11.67;;;;;22.07;66.93;100878.28;5074621;27;45654;-66
2022/04/20 06:35:10;;;;;;;;;9.00;9.00;;;;;22.07;67.16;100867.53;5073049;28;61620;-66
2022/04/20 06:37:35;;;;;;;;;11.00;10.00;;;;;22.06;67.05;100871.16;5076422;28;45551;-67
2022/04/20 06:40:01;;;;;;;;;13.00;12.33;;;;;22.06;67.21;100872.03;5077843;28;45670;-66
2022/04/20 06:42:27;;;;;;;;;19.67;15.33;;;;;22.06;67.16;100863.09;5058166;28;46352;-66
2022/04/20 06:44:53;;;;;;;;;11.67;11.67;;;;;22.05;67.16;100862.22;5073816;28;46282;-66
2022/04/20 06:47:18;;;;;;;;;13.00;12.67;;;;;22.04;67.32;100863.13;5076098;28;45474;-66
2022/04/20 06:49:44;;;;;;;;;13.33;12.00;;;;;22.05;67.34;100866.69;5073179;28;45867;-66
2022/04/20 07:00:21;;;;;;;;;12.00;11.67;;;;;22.03;67.33;100871.25;5070750;28;46219;-66
2022/04/20 07:02:47;;;;;;;;;14.33;13.33;;;;;22.02;67.79;100869.50;5076640;28;47257;-64
2022/04/20 07:05:12;;;;;;;;;15.00;12.33;;;;;22.03;67.28;100871.25;5075137;27;59195;-65
2022/04/20 07:07:37;;;;;;;;;13.33;10.33;;;;;22.01;67.73;100871.31;5065523;28;45574;-65
2022/04/20 07:10:04;;;;;;;;;15.67;13.67;;;;;22.00;67.66;100869.56;5072194;28;46444;-64
2022/04/20 07:12:29;;;;;;;;;10.33;10.33;;;;;22.00;67.83;100869.56;5075045;28;47664;-66
2022/04/20 07:14:55;;;;;;;;;11.33;11.33;;;;;22.00;67.87;100869.56;5071981;28;57719;-66
2022/04/20 07:17:20;;;;;;;;;14.00;12.33;;;;;22.00;67.97;100872.25;5069952;28;57676;-66
2022/04/20 07:19:45;;;;;;;;;14.33;12.33;;;;;22.00;68.34;100868.66;5074653;28;51334;-65
2022/04/20 07:22:11;;;;;;;;;14.00;10.67;;;;;21.99;67.97;100875.84;5070535;28;60477;-65
2022/04/20 07:24:36;;;;;;;;;15.33;13.33;;;;;21.98;68.04;100880.34;5072157;28;63519;-65
2022/04/20 07:27:01;;;;;;;;;13.33;12.00;;;;;21.98;68.11;100880.34;5073779;28;56067;-65
2022/04/20 07:29:27;;;;;;;;;14.33;12.67;;;;;21.98;68.17;100883.03;5073439;28;45537;-66
2022/04/20 07:31:52;;;;;;;;;12.67;11.33;;;;;21.97;67.98;100881.28;5073485;28;46543;-64
2022/04/20 07:34:17;;;;;;;;;13.00;13.00;;;;;21.98;67.89;100884.84;5071264;28;58486;-65
2022/04/20 07:36:43;;;;;;;;;16.00;15.00;;;;;21.97;67.99;100883.09;5071714;28;58775;-65
2022/04/20 07:39:08;;;;;;;;;14.67;11.00;;;;;21.96;68.04;100887.59;5074760;28;45936;-65
2022/04/20 07:41:33;;;;;;;;;9.00;9.00;;;;;21.96;68.01;100884.91;5071123;28;62526;-64
2022/04/20 07:43:59;;;;;;;;;14.67;12.67;;;;;21.97;67.97;100886.66;5075074;28;45461;-65
2022/04/20 07:46:24;;;;;;;;;11.67;11.67;;;;;21.96;68.11;100884.03;5071186;28;56346;-66
2022/04/20 07:48:49;;;;;;;;;14.33;11.33;;;;;21.96;68.94;100887.59;5073816;28;46977;-65
2022/04/20 07:51:17;;;;;;;;;14.67;13.00;;;;;21.96;68.64;100874.16;5070778;28;56974;-65
2022/04/20 07:53:42;;;;;;;;;16.00;14.33;;;;;21.96;69.10;100884.91;5073011;28;45546;-65
2022/04/20 07:56:08;;;;;;;;;10.00;10.00;;;;;21.95;68.67;100883.16;5075461;28;45414;-64
2022/04/20 07:58:33;;;;;;;;;12.00;11.00;;;;;21.96;68.52;100884.03;5076104;28;45523;-66
2022/04/20 08:00:58;;;;;;;;;14.33;9.33;;;;;21.96;68.66;100884.91;5068978;28;63459;-65
2022/04/20 08:03:24;;;;;;;;;12.00;10.67;;;;;21.96;68.64;100884.91;5074258;28;62042;-66
2022/04/20 08:05:52;;;;;;;;;11.67;9.00;;;;;21.95;68.69;100882.28;5069308;28;45915;-65
2022/04/20 08:08:18;;;;;;;;;10.33;9.00;;;;;21.95;68.82;100883.16;5071189;28;45584;-65
2022/04/20 08:10:44;;;;;;;;;11.00;11.00;;;;;21.95;68.54;100885.84;5072741;28;45470;-64
2022/04/20 08:15:55;;;;;;;;;8.67;8.67;;;;;21.95;68.38;100880.47;5067892;28;45608;-64
2022/04/20 08:18:21;;;;;;;;;11.00;9.00;;;;;21.96;68.27;100876.84;5073687;28;45513;-64
2022/04/20 08:20:47;;;;;;;;;10.33;9.00;;;;;21.97;68.39;100883.09;5074331;28;46772;-65
2022/04/20 08:23:14;;;;;;;;;7.00;7.00;;;;;21.97;68.30;100873.22;5074889;28;45378;-67
2022/04/20 08:25:39;;;;;;;;;10.00;9.00;;;;;21.98;68.91;100868.72;5074617;28;45380;-66
2022/04/20 08:28:06;;;;;;;;;8.67;8.67;;;;;21.98;68.64;100874.09;5073967;28;45921;-67
2022/04/20 08:30:32;;;;;;;;;12.33;11.00;;;;;21.98;69.65;100869.59;5073675;28;47253;-65
2022/04/20 08:32:58;;;;;;;;;10.33;9.00;;;;;21.98;69.19;100877.66;5072933;28;46012;-65
2022/04/20 08:35:23;;;;;;;;;8.00;8.00;;;;;21.98;69.43;100868.72;5070154;28;45387;-67
2022/04/20 08:37:48;;;;;;;;;11.00;8.00;;;;;21.97;69.76;100875.91;5070902;28;46846;-64
2022/04/20 08:40:14;;;;;;;;;10.67;9.33;;;;;21.99;70.24;100875.84;5072956;28;49765;-65
2022/04/20 08:42:41;;;;;;;;;9.00;7.67;;;;;21.97;70.18;100877.72;5055175;28;52608;-66
2022/04/20 08:45:07;;;;;;;;;11.33;9.33;;;;;21.98;70.10;100880.34;5072265;28;45571;-65
2022/04/20 08:47:39;;;;;;;;;7.00;7.00;;;;;21.98;70.81;100884.84;5055124;28;45525;-67
2022/04/20 08:50:07;;;;;;;;;10.00;8.00;;;;;21.97;70.68;100881.28;5054421;28;46612;-65
2022/04/20 08:52:42;;;;;;;;;7.33;7.33;;;;;21.97;71.23;100889.34;5072303;28;45293;-65
2022/04/20 08:55:16;;;;;;;;;8.00;6.67;;;;;21.97;71.30;100885.78;5071450;28;45536;-66
2022/04/20 08:57:45;;;;;;;;;8.00;7.00;;;;;21.97;71.63;100881.28;5073609;28;45385;-65
2022/04/20 09:00:22;;;;;;;;;8.67;7.67;;;;;21.96;71.87;100884.91;5068560;27;46730;-65
2022/04/20 09:02:54;;;;;;;;;5.00;5.00;;;;;21.96;72.41;100882.22;5065391;27;45770;-68
2022/04/20 09:05:20;;;;;;;;;8.00;8.00;;;;;21.95;72.83;100882.28;5075726;27;47300;-65
2022/04/20 09:07:46;;;;;;;;;7.33;7.33;;;;;21.96;72.69;100894.78;5055802;27;46661;-66
2022/04/20 09:10:11;;;;;;;;;7.00;7.00;;;;;21.95;73.01;100883.16;5073725;27;47095;-67
2022/04/20 09:12:43;;;;;;;;;7.00;7.00;;;;;21.95;73.22;100882.28;5071925;27;45553;-66
2022/04/20 09:15:11;;;;;;;;;14.00;7.67;;;;;21.95;73.35;100880.47;5072149;27;45635;-64
2022/04/20 09:17:44;;;;;;;;;9.00;8.00;;;;;21.92;73.68;100880.56;5073198;27;45514;-64
2022/04/20 09:20:18;;;;;;;;;7.00;6.00;;;;;21.94;73.60;100881.41;5071575;27;47417;-66
2022/04/20 09:23:10;;;;;;;;;7.33;5.67;;;;;21.95;73.73;100882.28;5073597;27;45477;-64
2022/04/20 09:25:37;;;;;;;;;12.00;7.67;;;;;21.94;74.47;100878.72;5074006;27;45468;-67
2022/04/20 09:28:07;;;;;;;;;9.00;8.00;;;;;21.93;74.03;100871.56;5073585;27;45602;-66
2022/04/20 09:30:38;;;;;;;;;8.67;8.00;;;;;21.92;74.81;100875.19;5074418;27;47499;-67
2022/04/20 09:33:06;;;;;;;;;12.33;8.00;;;;;21.92;75.02;100871.63;5074412;27;45537;-67
2022/04/20 09:35:46;;;;;;;;;9.67;6.33;;;;;21.91;75.35;100872.56;5077871;27;45501;-66
2022/04/20 09:38:13;;;;;;;;;10.33;7.33;;;;;21.89;75.57;100872.63;5075905;27;45573;-65
2022/04/20 09:40:39;;;;;;;;;9.33;6.00;;;;;21.89;75.71;100869.03;5077370;27;47544;-67
2022/04/20 09:43:07;;;;;;;;;9.00;7.67;;;;;21.88;75.55;100865.47;5076569;27;45636;-66
2022/04/20 09:45:34;;;;;;;;;9.00;9.00;;;;;21.87;76.39;100866.41;5069305;27;46066;-66
2022/04/20 09:51:09;;;;;;;;;6.33;6.33;;;;;21.86;77.33;100855.72;5077365;27;45767;-70
2022/04/20 09:53:35;;;;;;;;;10.00;8.00;;;;;21.85;76.77;100853.97;5075209;27;45363;-63
2022/04/20 09:56:22;;;;;;;;;12.00;8.00;;;;;21.85;77.19;100851.28;5058995;28;45417;-65
2022/04/20 09:59:01;;;;;;;;;10.67;8.00;;;;;21.83;77.13;100851.31;5073977;27;45656;-65
2022/04/20 10:01:36;;;;;;;;;10.00;10.00;;;;;21.84;77.26;100849.50;5074943;27;46547;-67
2022/04/20 10:04:06;;;;;;;;;11.33;9.67;;;;;21.82;77.73;100848.69;5074254;27;45518;-63
2022/04/20 10:06:32;;;;;;;;;15.67;13.67;;;;;21.83;78.62;100850.44;5074190;27;45655;-67
2022/04/20 10:08:58;;;;;;;;;15.00;11.33;;;;;21.81;79.20;100850.50;5065982;27;45656;-67
2022/04/20 10:11:25;;;;;;;;;17.67;15.33;;;;;21.82;78.98;100840.63;5077883;27;46549;-68
2022/04/20 10:16:46;;;;;;;;;33.75;28.75;;;;;21.82;79.63;100844.19;5070837;27;45506;-67
2022/04/20 10:19:13;;;;;;;;;37.25;34.00;;;;;21.81;79.55;100842.44;5057551;27;45583;-66
2022/04/20 10:21:46;;;;;;;;;45.00;35.25;;;;;21.82;79.54;100843.31;5067472;27;45932;-67
2022/04/20 10:24:15;;;;;;;;;50.50;40.25;;;;;21.82;79.51;100836.13;5058188;28;45516;-65
2022/04/20 10:26:41;;;;;;;;;56.25;40.75;;;;;21.82;79.77;100840.63;5074250;27;45335;-66
2022/04/20 10:29:15;;;;;;;;;55.25;42.75;;;;;21.82;80.34;100844.19;5059122;28;53201;-66
2022/04/20 10:31:50;;;;;;;;;62.50;45.25;;;;;21.82;80.18;100833.44;5058524;28;46520;-67
2022/04/20 10:34:18;;;;;;;;;59.75;45.50;;;;;21.82;80.29;100829.88;5060148;27;45573;-70
2022/04/20 10:36:58;;;;;;;;;61.50;45.75;;;;;21.81;80.26;100829.00;5063360;27;45468;-67
2022/04/20 10:39:26;;;;;;;;;59.75;46.50;;;;;21.81;80.65;100830.81;5056969;27;45912;-70
2022/04/20 10:42:17;;;;;;;;;64.50;48.50;;;;;21.81;80.79;100833.50;5069325;27;47600;-66
2022/04/20 10:45:05;;;;;;;;;62.50;49.50;;;;;21.81;81.47;100825.44;5067391;27;45685;-66
2022/04/20 10:47:42;;;;;;;;;63.00;49.00;;;;;21.80;81.31;100811.13;5068629;27;45508;-66
2022/04/20 10:50:14;;;;;;;;;62.00;46.50;;;;;21.80;81.61;100818.31;5073103;28;45629;-65
2022/04/20 10:52:41;;;;;;;;;67.00;51.00;;;;;21.80;81.90;100815.63;5068042;28;46567;-68
2022/04/20 10:55:09;;;;;;;;;66.25;49.75;;;;;21.80;82.46;100819.19;5075104;27;45583;-66
2022/04/20 10:57:40;;;;;;;;;68.50;50.00;;;;;21.80;81.80;100810.25;5074871;28;45493;-70
2022/04/20 11:00:20;;;;;;;;;63.50;50.25;;;;;21.80;82.15;100808.44;5071268;28;45462;-70
2022/04/20 11:03:01;;;;;;;;;68.50;52.00;;;;;21.81;82.21;100802.13;5073073;28;46933;-69
2022/04/20 11:05:27;;;;;;;;;64.50;50.50;;;;;21.80;82.26;100797.69;5075454;28;45451;-66
2022/04/20 11:08:12;;;;;;;;;63.25;49.50;;;;;21.79;83.00;100793.25;5076227;28;58984;-66
2022/04/20 11:10:42;;;;;;;;;62.00;50.00;;;;;21.80;82.62;100799.50;5065508;28;45338;-66
2022/04/20 11:33:17;;;;;;;;;55.50;43.50;;;;;21.78;84.08;100783.41;5067407;27;45379;-65
2022/04/20 11:35:56;;;;;;;;;53.75;42.00;;;;;21.79;83.90;100784.31;5068531;27;45494;-65
2022/04/20 11:38:37;;;;;;;;;54.25;42.00;;;;;21.81;84.44;100788.69;5067348;27;46387;-65
2022/04/20 11:41:05;;;;;;;;;51.50;40.25;;;;;21.82;84.47;100785.06;5055623;28;45873;-66
2022/04/20 11:43:31;;;;;;;;;49.50;40.25;;;;;21.83;84.43;100776.03;5067185;27;45411;-63
2022/04/20 11:45:56;;;;;;;;;49.50;40.50;;;;;21.81;84.01;100777.94;5050191;28;45636;-66
2022/04/20 11:48:22;;;;;;;;;53.75;40.25;;;;;21.84;83.68;100782.28;5073355;28;52493;-65
2022/04/20 11:50:58;;;;;;;;;46.75;39.25;;;;;21.84;84.08;100777.81;5074849;28;45456;-68
2022/04/20 11:53:45;;;;;;;;;52.50;40.25;;;;;21.85;83.76;100782.25;5075167;28;45393;-66
2022/04/20 11:56:10;;;;;;;;;47.50;37.25;;;;;21.85;83.96;100776.88;5070917;28;45700;-66
2022/04/20 11:58:39;;;;;;;;;50.75;38.25;;;;;21.86;84.19;100769.69;5072277;27;47218;-66
2022/04/20 12:01:06;;;;;;;;;50.50;38.25;;;;;21.86;83.81;100770.56;5072535;27;45429;-66
2022/04/20 12:03:41;;;;;;;;;41.25;36.00;;;;;21.87;84.28;100766.06;5072291;27;45599;-66
2022/04/20 12:06:08;;;;;;;;;46.25;37.25;;;;;21.88;83.64;100768.69;5058147;27;45538;-65
2022/04/20 12:08:36;;;;;;;;;30.67;21.67;;;;;21.86;81.15;100762.50;5062434;27;47342;-65